createdAt,value
2023-04-18T00:00:13.972Z,30.85
2023-04-18T00:01:13.990Z,30.85
2023-04-18T00:02:14.086Z,30.81
2023-04-18T00:03:14.236Z,30.82
2023-04-18T00:04:14.640Z,30.82
2023-04-18T00:05:14.215Z,30.82
2023-04-18T00:06:14.220Z,30.85
2023-04-18T00:07:14.338Z,30.84
2023-04-18T00:08:14.391Z,30.82
2023-04-18T00:09:14.473Z,30.84
2023-04-18T00:10:14.473Z,30.84
2023-04-18T00:11:14.489Z,30.86
2023-04-18T00:12:14.566Z,30.83
2023-04-18T00:13:14.637Z,30.84
2023-04-18T00:14:15.075Z,30.84
2023-04-18T00:15:14.730Z,30.83
2023-04-18T00:16:14.816Z,30.82
2023-04-18T00:17:14.833Z,30.81
2023-04-18T00:18:14.858Z,30.83
2023-04-18T00:19:14.922Z,30.84
2023-04-18T00:20:14.980Z,30.84
2023-04-18T00:21:15.036Z,30.81
2023-04-18T00:22:15.037Z,30.83
2023-04-18T00:23:15.109Z,30.83
2023-04-18T00:24:15.347Z,30.81
2023-04-18T00:25:15.223Z,30.81
2023-04-18T00:26:15.209Z,30.82
2023-04-18T00:27:15.297Z,30.84
2023-04-18T00:28:15.336Z,30.82
2023-04-18T00:29:15.335Z,30.82
2023-04-18T00:30:15.392Z,30.84
2023-04-18T00:31:15.483Z,30.82
2023-04-18T00:32:15.521Z,30.81
2023-04-18T00:33:15.517Z,30.84
2023-04-18T00:34:15.716Z,30.82
2023-04-18T00:35:15.659Z,30.83
2023-04-18T00:36:15.664Z,30.84
2023-04-18T00:37:15.775Z,30.83
2023-04-18T00:38:15.783Z,30.82
2023-04-18T00:39:15.819Z,30.83
2023-04-18T00:40:15.883Z,30.84
2023-04-18T00:41:15.995Z,30.85
2023-04-18T00:42:15.999Z,30.83
2023-04-18T00:43:16.023Z,30.83
2023-04-18T00:44:16.210Z,30.84
2023-04-18T00:45:16.150Z,30.85
2023-04-18T00:46:16.157Z,30.83
2023-04-18T00:47:16.198Z,30.82
2023-04-18T00:48:16.174Z,30.85
2023-04-18T00:49:16.248Z,30.85
2023-04-18T00:50:16.324Z,30.84
2023-04-18T00:51:16.358Z,30.82
2023-04-18T00:52:16.436Z,30.85
2023-04-18T00:53:16.486Z,30.83
2023-04-18T00:54:16.606Z,30.85
2023-04-18T00:55:16.600Z,30.83
2023-04-18T00:56:16.647Z,30.85
2023-04-18T00:57:16.703Z,30.83
2023-04-18T00:58:16.743Z,30.84
2023-04-18T00:59:16.740Z,30.85
2023-04-18T01:00:16.782Z,30.84
2023-04-18T01:01:16.784Z,30.84
2023-04-18T01:02:16.835Z,30.85
2023-04-18T01:03:16.865Z,30.85
2023-04-18T01:04:17.112Z,30.83
2023-04-18T01:05:16.772Z,30.85
2023-04-18T01:06:16.801Z,30.83
2023-04-18T01:07:16.783Z,30.85
2023-04-18T01:08:16.824Z,30.84
2023-04-18T01:09:16.895Z,30.84
2023-04-18T01:10:16.954Z,30.86
2023-04-18T01:11:16.952Z,30.83
2023-04-18T01:12:17.046Z,30.85
2023-04-18T01:13:17.082Z,30.83
2023-04-18T01:14:17.136Z,30.83
2023-04-18T01:15:17.149Z,30.84
2023-04-18T01:16:17.185Z,30.83
2023-04-18T01:17:17.266Z,30.83
2023-04-18T01:18:17.276Z,30.84
2023-04-18T01:19:17.329Z,30.85
2023-04-18T01:20:17.390Z,30.84
2023-04-18T01:21:17.435Z,30.83
2023-04-18T01:22:17.501Z,30.82
2023-04-18T01:23:17.545Z,30.84
2023-04-18T01:24:17.568Z,30.85
2023-04-18T01:25:17.612Z,30.84
2023-04-18T01:26:17.669Z,30.86
2023-04-18T01:27:17.739Z,30.83
2023-04-18T01:28:17.784Z,30.84
2023-04-18T01:29:17.820Z,30.84
2023-04-18T01:30:17.866Z,30.84
2023-04-18T01:31:17.959Z,30.85
2023-04-18T01:32:17.926Z,30.81
2023-04-18T01:33:17.982Z,30.84
2023-04-18T01:34:18.075Z,30.84
2023-04-18T01:35:18.043Z,30.85
2023-04-18T01:36:18.108Z,30.85
2023-04-18T01:37:18.286Z,30.84
2023-04-18T01:38:18.233Z,30.83
2023-04-18T01:39:18.306Z,30.85
2023-04-18T01:40:18.660Z,30.85
2023-04-18T01:41:18.358Z,30.84
2023-04-18T01:42:18.405Z,30.85
2023-04-18T01:43:18.480Z,30.84
2023-04-18T01:44:18.526Z,30.84
2023-04-18T01:45:18.592Z,30.85
2023-04-18T01:46:18.633Z,30.86
2023-04-18T01:47:18.763Z,30.81
2023-04-18T01:48:18.686Z,30.83
2023-04-18T01:49:18.774Z,30.84
2023-04-18T01:50:18.808Z,30.84
2023-04-18T01:51:18.879Z,30.84
2023-04-18T01:52:18.923Z,30.84
2023-04-18T01:53:18.984Z,30.87
2023-04-18T01:54:19.043Z,30.85
2023-04-18T01:55:19.105Z,30.84
2023-04-18T01:56:19.616Z,30.83
2023-04-18T01:57:19.164Z,30.84
2023-04-18T01:58:19.282Z,30.82
2023-04-18T01:59:19.283Z,30.84
2023-04-18T02:00:19.394Z,30.83
2023-04-18T02:01:19.496Z,30.84
2023-04-18T02:02:19.591Z,30.85
2023-04-18T02:03:19.633Z,30.83
2023-04-18T02:04:19.624Z,30.84
2023-04-18T02:05:19.629Z,30.82
2023-04-18T02:06:19.642Z,30.84
2023-04-18T02:07:19.643Z,30.84
2023-04-18T02:08:19.701Z,30.86
2023-04-18T02:09:19.703Z,30.83
2023-04-18T02:10:19.714Z,30.85
2023-04-18T02:11:19.797Z,30.85
2023-04-18T02:12:19.793Z,30.85
2023-04-18T02:13:19.906Z,30.83
2023-04-18T02:14:19.941Z,30.85
2023-04-18T02:15:19.960Z,30.85
2023-04-18T02:16:19.993Z,30.82
2023-04-18T02:17:19.965Z,30.85
2023-04-18T02:18:19.973Z,30.84
2023-04-18T02:19:20.048Z,30.84
2023-04-18T02:20:20.020Z,30.86
2023-04-18T02:21:20.054Z,30.84
2023-04-18T02:22:20.068Z,30.84
2023-04-18T02:23:20.068Z,30.85
2023-04-18T02:24:20.084Z,30.86
2023-04-18T02:25:20.108Z,30.83
2023-04-18T02:26:20.086Z,30.83
2023-04-18T02:27:20.103Z,30.85
2023-04-18T02:28:20.162Z,30.83
2023-04-18T02:29:20.247Z,30.85
2023-04-18T02:30:20.312Z,30.85
2023-04-18T02:31:20.418Z,30.84
2023-04-18T02:32:20.509Z,30.84
2023-04-18T02:33:20.464Z,30.82
2023-04-18T02:34:20.621Z,30.86
2023-04-18T02:35:20.611Z,30.84
2023-04-18T02:36:20.668Z,30.83
2023-04-18T02:37:20.717Z,30.85
2023-04-18T02:38:20.779Z,30.84
2023-04-18T02:39:20.832Z,30.84
2023-04-18T02:40:20.894Z,30.86
2023-04-18T02:41:20.910Z,30.85
2023-04-18T02:42:20.960Z,30.84
2023-04-18T02:43:20.936Z,30.86
2023-04-18T02:44:20.954Z,30.85
2023-04-18T02:45:20.978Z,30.84
2023-04-18T02:46:21.012Z,30.83
2023-04-18T02:47:20.985Z,30.84
2023-04-18T02:48:21.021Z,30.85
2023-04-18T02:49:21.009Z,30.82
2023-04-18T02:50:20.987Z,30.84
2023-04-18T02:51:21.023Z,30.85
2023-04-18T02:52:21.026Z,30.82
2023-04-18T02:53:21.088Z,30.86
2023-04-18T02:54:21.141Z,30.87
2023-04-18T02:55:21.201Z,30.84
2023-04-18T02:56:21.264Z,30.84
2023-04-18T02:57:21.314Z,30.82
2023-04-18T02:58:21.366Z,30.84
2023-04-18T02:59:21.437Z,30.85
2023-04-18T03:00:21.489Z,30.85
2023-04-18T03:01:21.586Z,30.85
2023-04-18T03:02:21.681Z,30.85
2023-04-18T03:03:21.638Z,30.83
2023-04-18T03:04:21.653Z,30.84
2023-04-18T03:05:21.637Z,30.85
2023-04-18T03:06:21.629Z,30.86
2023-04-18T03:07:21.645Z,30.84
2023-04-18T03:08:21.680Z,30.84
2023-04-18T03:09:21.658Z,30.84
2023-04-18T03:10:21.715Z,30.86
2023-04-18T03:11:21.764Z,30.83
2023-04-18T03:12:21.835Z,30.84
2023-04-18T03:13:21.881Z,30.86
2023-04-18T03:14:21.891Z,30.85
2023-04-18T03:15:21.952Z,30.85
2023-04-18T03:16:22.043Z,30.84
2023-04-18T03:17:22.099Z,30.83
2023-04-18T03:18:22.086Z,30.83
2023-04-18T03:19:22.122Z,30.85
2023-04-18T03:20:22.178Z,30.87
2023-04-18T03:21:22.220Z,30.82
2023-04-18T03:22:22.242Z,30.83
2023-04-18T03:23:22.318Z,30.84
2023-04-18T03:24:22.372Z,30.83
2023-04-18T03:25:22.433Z,30.84
2023-04-18T03:26:22.482Z,30.84
2023-04-18T03:27:22.550Z,30.85
2023-04-18T03:28:22.658Z,30.85
2023-04-18T03:29:22.753Z,30.85
2023-04-18T03:30:22.717Z,30.86
2023-04-18T03:31:22.872Z,30.85
2023-04-18T03:32:22.936Z,30.83
2023-04-18T03:33:22.946Z,30.83
2023-04-18T03:34:23.001Z,30.86
2023-04-18T03:35:23.081Z,30.84
2023-04-18T03:36:23.123Z,30.82
2023-04-18T03:37:23.175Z,30.85
2023-04-18T03:38:23.235Z,30.83
2023-04-18T03:39:23.343Z,30.85
2023-04-18T03:40:23.361Z,30.83
2023-04-18T03:41:23.395Z,30.84
2023-04-18T03:42:23.542Z,30.87
2023-04-18T03:43:23.514Z,30.83
2023-04-18T03:44:23.633Z,30.83
2023-04-18T03:45:23.656Z,30.86
2023-04-18T03:46:23.813Z,30.85
2023-04-18T03:47:23.926Z,30.86
2023-04-18T03:48:23.819Z,30.87
2023-04-18T03:49:23.917Z,30.82
2023-04-18T03:50:23.979Z,30.84
2023-04-18T03:51:24.051Z,30.84
2023-04-18T03:52:24.051Z,30.85
2023-04-18T03:53:24.065Z,30.83
2023-04-18T03:54:24.064Z,30.88
2023-04-18T03:55:24.032Z,30.87
2023-04-18T03:56:24.129Z,30.85
2023-04-18T03:57:24.198Z,30.86
2023-04-18T03:58:24.243Z,30.84
2023-04-18T03:59:24.304Z,30.84
2023-04-18T04:00:24.376Z,30.83
2023-04-18T04:01:24.420Z,30.86
2023-04-18T04:02:24.517Z,30.86
2023-04-18T04:03:24.525Z,30.86
2023-04-18T04:04:24.506Z,30.86
2023-04-18T04:05:24.398Z,30.84
2023-04-18T04:06:24.434Z,30.79
2023-04-18T04:07:24.509Z,30.77
2023-04-18T04:08:25.929Z,30.79
2023-04-18T04:09:24.533Z,30.76
2023-04-18T04:10:24.559Z,30.72
2023-04-18T04:11:24.489Z,30.69
2023-04-18T04:12:24.497Z,30.65
2023-04-18T04:13:24.498Z,30.57
2023-04-18T04:14:24.504Z,30.56
2023-04-18T04:15:24.469Z,30.45
2023-04-18T04:16:24.531Z,30.48
2023-04-18T04:17:24.524Z,30.46
2023-04-18T04:18:24.482Z,30.41
2023-04-18T04:19:24.453Z,30.36
2023-04-18T04:20:24.460Z,30.40
2023-04-18T04:21:24.481Z,30.35
2023-04-18T04:22:24.474Z,30.31
2023-04-18T04:23:24.443Z,30.30
2023-04-18T04:24:24.429Z,30.28
2023-04-18T04:25:24.558Z,30.21
2023-04-18T04:26:24.491Z,30.22
2023-04-18T04:27:24.407Z,30.19
2023-04-18T04:28:24.397Z,30.15
2023-04-18T04:29:24.349Z,30.15
2023-04-18T04:30:24.378Z,30.14
2023-04-18T04:31:24.414Z,30.15
2023-04-18T04:32:24.332Z,30.09
2023-04-18T04:33:24.349Z,30.05
2023-04-18T04:34:24.356Z,30.08
2023-04-18T04:35:24.364Z,30.07
2023-04-18T04:36:24.315Z,30.04
2023-04-18T04:37:24.334Z,30.04
2023-04-18T04:38:24.340Z,30.02
2023-04-18T04:39:24.320Z,30.02
2023-04-18T04:40:24.295Z,30.04
2023-04-18T04:41:24.295Z,30.07
2023-04-18T04:42:24.286Z,30.07
2023-04-18T04:43:24.237Z,30.07
2023-04-18T04:44:24.270Z,30.07
2023-04-18T04:45:24.273Z,30.12
2023-04-18T04:46:24.348Z,30.10
2023-04-18T04:47:24.242Z,30.10
2023-04-18T04:48:24.226Z,30.10
2023-04-18T04:49:24.244Z,30.11
2023-04-18T04:50:24.258Z,30.12
2023-04-18T04:51:24.233Z,30.14
2023-04-18T04:52:24.246Z,30.15
2023-04-18T04:53:24.261Z,30.11
2023-04-18T04:54:24.187Z,30.08
2023-04-18T04:55:24.189Z,30.04
2023-04-18T04:56:24.178Z,30.08
2023-04-18T04:57:24.183Z,30.02
2023-04-18T04:58:24.183Z,30.05
2023-04-18T04:59:24.194Z,30.04
2023-04-18T05:00:24.226Z,30.02
2023-04-18T05:01:24.405Z,30.04
2023-04-18T05:02:24.500Z,30.00
2023-04-18T05:03:24.571Z,30.00
2023-04-18T05:04:24.611Z,29.96
2023-04-18T05:05:24.518Z,29.90
2023-04-18T05:06:24.446Z,29.84
2023-04-18T05:07:24.512Z,29.83
2023-04-18T05:08:24.465Z,29.82
2023-04-18T05:09:24.411Z,29.92
2023-04-18T05:10:24.450Z,29.98
2023-04-18T05:11:24.487Z,29.99
2023-04-18T05:12:24.492Z,29.97
2023-04-18T05:13:24.519Z,29.91
2023-04-18T05:14:24.496Z,29.93
2023-04-18T05:15:24.621Z,29.95
2023-04-18T05:16:24.572Z,29.89
2023-04-18T05:17:24.549Z,29.89
2023-04-18T05:18:24.544Z,29.79
2023-04-18T05:19:24.505Z,29.77
2023-04-18T05:20:24.530Z,29.77
2023-04-18T05:21:24.487Z,29.80
2023-04-18T05:22:24.504Z,29.79
2023-04-18T05:23:24.541Z,29.80
2023-04-18T05:24:24.515Z,29.92
2023-04-18T05:25:24.547Z,29.89
2023-04-18T05:26:24.536Z,29.90
2023-04-18T05:27:24.514Z,30.00
2023-04-18T05:28:24.591Z,30.02
2023-04-18T05:29:24.552Z,29.86
2023-04-18T05:30:24.622Z,29.67
2023-04-18T05:31:24.656Z,29.49
2023-04-18T05:32:24.606Z,29.35
2023-04-18T05:33:24.684Z,29.42
2023-04-18T05:34:24.640Z,29.29
2023-04-18T05:35:24.752Z,29.56
2023-04-18T05:36:24.786Z,29.73
2023-04-18T05:37:24.848Z,29.97
2023-04-18T05:38:24.840Z,30.03
2023-04-18T05:39:24.943Z,30.10
2023-04-18T05:40:24.965Z,30.49
2023-04-18T05:41:24.992Z,30.94
2023-04-18T05:42:25.002Z,31.18
2023-04-18T05:43:25.119Z,31.30
2023-04-18T05:44:25.132Z,31.43
2023-04-18T05:45:25.268Z,31.61
2023-04-18T05:46:25.318Z,31.55
2023-04-18T05:47:25.262Z,31.45
2023-04-18T05:48:25.315Z,31.43
2023-04-18T05:49:25.263Z,31.58
2023-04-18T05:50:25.327Z,31.61
2023-04-18T05:51:25.719Z,31.71
2023-04-18T05:52:25.347Z,31.77
2023-04-18T05:53:25.374Z,31.79
2023-04-18T05:54:25.362Z,31.70
2023-04-18T05:55:25.372Z,31.75
2023-04-18T05:56:25.335Z,31.66
2023-04-18T05:57:25.814Z,31.67
2023-04-18T05:58:25.432Z,31.65
2023-04-18T05:59:25.761Z,31.65
2023-04-18T06:00:25.354Z,31.61
2023-04-18T06:01:25.831Z,31.58
2023-04-18T06:02:25.567Z,31.60
2023-04-18T06:03:25.705Z,31.56
2023-04-18T06:04:25.551Z,31.61
2023-04-18T06:05:25.628Z,31.64
2023-04-18T06:06:25.436Z,31.72
2023-04-18T06:07:25.448Z,31.66
2023-04-18T06:08:25.445Z,31.66
2023-04-18T06:09:25.460Z,31.60
2023-04-18T06:10:25.421Z,31.65
2023-04-18T06:11:25.432Z,31.66
2023-04-18T06:12:25.525Z,31.85
2023-04-18T06:13:25.441Z,31.67
2023-04-18T06:14:25.425Z,31.63
2023-04-18T06:15:25.513Z,31.57
2023-04-18T06:16:25.619Z,31.55
2023-04-18T06:17:25.769Z,31.52
2023-04-18T06:18:25.685Z,31.52
2023-04-18T06:19:25.711Z,31.50
2023-04-18T06:20:25.781Z,31.50
2023-04-18T06:21:25.812Z,31.52
2023-04-18T06:22:25.804Z,31.56
2023-04-18T06:23:25.851Z,31.57
2023-04-18T06:24:25.845Z,31.58
2023-04-18T06:25:25.952Z,31.56
2023-04-18T06:26:25.893Z,31.58
2023-04-18T06:27:31.562Z,31.54
2023-04-18T06:28:29.000Z,31.55
2023-04-18T06:29:25.838Z,31.57
2023-04-18T06:30:25.852Z,31.57
2023-04-18T06:31:26.283Z,31.57
2023-04-18T06:32:26.029Z,31.56
2023-04-18T06:33:26.196Z,31.56
2023-04-18T06:34:25.816Z,31.55
2023-04-18T06:35:26.800Z,31.58
2023-04-18T06:36:25.812Z,31.57
2023-04-18T06:37:25.849Z,31.68
2023-04-18T06:38:25.807Z,31.95
2023-04-18T06:39:25.841Z,31.41
2023-04-18T06:40:25.920Z,31.34
2023-04-18T06:41:26.741Z,31.53
2023-04-18T06:42:25.749Z,31.68
2023-04-18T06:43:25.848Z,31.75
2023-04-18T06:44:25.818Z,31.79
2023-04-18T06:45:26.251Z,32.14
2023-04-18T06:46:25.849Z,31.99
2023-04-18T06:47:25.845Z,31.97
2023-04-18T06:48:26.253Z,32.02
2023-04-18T06:49:26.742Z,31.97
2023-04-18T06:50:25.676Z,32.03
2023-04-18T06:51:25.743Z,32.13
2023-04-18T06:52:25.924Z,32.15
2023-04-18T06:53:25.761Z,32.14
2023-04-18T06:54:25.900Z,32.20
2023-04-18T06:55:25.786Z,32.23
2023-04-18T06:56:25.685Z,32.26
2023-04-18T06:57:25.712Z,32.49
2023-04-18T06:58:25.733Z,32.39
2023-04-18T06:59:25.736Z,32.37
2023-04-18T07:00:26.052Z,32.42
2023-04-18T07:01:25.867Z,32.42
2023-04-18T07:02:25.969Z,32.54
2023-04-18T07:03:28.195Z,32.47
2023-04-18T07:04:26.050Z,32.62
2023-04-18T07:05:26.079Z,32.57
2023-04-18T07:06:26.039Z,32.71
2023-04-18T07:07:26.068Z,32.70
2023-04-18T07:08:26.160Z,32.72
2023-04-18T07:09:26.146Z,32.86
2023-04-18T07:10:26.212Z,32.84
2023-04-18T07:11:26.180Z,32.85
2023-04-18T07:12:26.235Z,32.89
2023-04-18T07:13:26.259Z,32.99
2023-04-18T07:14:26.284Z,32.94
2023-04-18T07:15:26.518Z,32.90
2023-04-18T07:16:26.464Z,32.95
2023-04-18T07:17:27.366Z,33.06
2023-04-18T07:18:34.732Z,32.97
2023-04-18T07:19:27.423Z,32.97
2023-04-18T07:20:26.411Z,33.07
2023-04-18T07:21:26.512Z,33.11
2023-04-18T07:22:26.716Z,33.17
2023-04-18T07:23:26.369Z,33.16
2023-04-18T07:24:26.374Z,33.15
2023-04-18T07:25:26.338Z,33.18
2023-04-18T07:26:26.311Z,33.21
2023-04-18T07:27:26.336Z,33.21
2023-04-18T07:28:26.435Z,33.21
2023-04-18T07:29:26.353Z,33.25
2023-04-18T07:30:26.359Z,33.35
2023-04-18T07:31:26.544Z,33.27
2023-04-18T07:32:26.340Z,33.17
2023-04-18T07:33:26.387Z,32.83
2023-04-18T07:34:26.397Z,32.54
2023-04-18T07:35:26.469Z,32.25
2023-04-18T07:36:26.689Z,32.45
2023-04-18T07:37:26.580Z,32.30
2023-04-18T07:38:26.605Z,32.43
2023-04-18T07:39:26.618Z,32.31
2023-04-18T07:40:26.709Z,32.18
2023-04-18T07:41:27.820Z,32.62
2023-04-18T07:42:26.822Z,32.66
2023-04-18T07:43:26.879Z,32.71
2023-04-18T07:44:26.961Z,32.82
2023-04-18T07:45:26.981Z,32.86
2023-04-18T07:46:27.068Z,32.83
2023-04-18T07:47:28.266Z,32.82
2023-04-18T07:48:27.302Z,32.90
2023-04-18T07:49:27.321Z,32.86
2023-04-18T07:50:27.098Z,32.90
2023-04-18T07:51:27.041Z,32.93
2023-04-18T07:52:27.172Z,32.92
2023-04-18T07:53:26.990Z,32.99
2023-04-18T07:54:26.996Z,32.96
2023-04-18T07:55:27.253Z,32.99
2023-04-18T07:56:26.968Z,32.96
2023-04-18T07:57:26.967Z,32.90
2023-04-18T07:58:26.955Z,33.00
2023-04-18T07:59:26.941Z,32.97
2023-04-18T08:00:26.976Z,32.98
2023-04-18T08:01:26.984Z,32.95
2023-04-18T08:02:27.384Z,32.95
2023-04-18T08:03:27.072Z,33.04
2023-04-18T08:04:29.842Z,33.03
2023-04-18T08:05:26.960Z,33.05
2023-04-18T08:06:26.980Z,33.11
2023-04-18T08:07:26.933Z,33.14
2023-04-18T08:08:26.898Z,33.11
2023-04-18T08:09:27.258Z,33.23
2023-04-18T08:10:26.841Z,33.18
2023-04-18T08:11:26.855Z,33.24
2023-04-18T08:12:26.919Z,33.24
2023-04-18T08:13:26.852Z,33.25
2023-04-18T08:14:26.829Z,33.25
2023-04-18T08:15:26.825Z,33.29
2023-04-18T08:16:27.946Z,33.31
2023-04-18T08:17:26.893Z,33.31
2023-04-18T08:18:26.847Z,33.34
2023-04-18T08:19:27.277Z,33.44
2023-04-18T08:20:26.851Z,33.41
2023-04-18T08:21:26.937Z,33.44
2023-04-18T08:22:26.807Z,33.54
2023-04-18T08:23:26.852Z,33.55
2023-04-18T08:24:26.842Z,33.49
2023-04-18T08:25:26.858Z,33.84
2023-04-18T08:26:26.759Z,33.99
2023-04-18T08:27:26.843Z,33.71
2023-04-18T08:28:26.930Z,33.58
2023-04-18T08:29:26.713Z,33.46
2023-04-18T08:30:26.793Z,33.28
2023-04-18T08:31:26.990Z,33.14
2023-04-18T08:32:26.738Z,33.03
2023-04-18T08:33:26.696Z,32.99
2023-04-18T08:34:26.791Z,32.90
2023-04-18T08:35:26.671Z,32.82
2023-04-18T08:36:26.666Z,32.73
2023-04-18T08:37:26.670Z,32.65
2023-04-18T08:38:26.642Z,32.55
2023-04-18T08:39:26.623Z,32.50
2023-04-18T08:40:26.637Z,32.45
2023-04-18T08:41:26.650Z,32.45
2023-04-18T08:42:26.663Z,32.37
2023-04-18T08:43:26.652Z,32.26
2023-04-18T08:44:26.620Z,32.81
2023-04-18T08:45:26.664Z,32.42
2023-04-18T08:46:26.657Z,32.51
2023-04-18T08:47:26.653Z,32.69
2023-04-18T08:48:26.593Z,32.94
2023-04-18T08:49:26.609Z,33.17
2023-04-18T08:50:26.708Z,33.39
2023-04-18T08:51:26.591Z,33.45
2023-04-18T08:52:26.795Z,33.45
2023-04-18T08:53:26.658Z,33.47
2023-04-18T08:54:27.412Z,33.56
2023-04-18T08:55:26.552Z,33.75
2023-04-18T08:56:26.564Z,33.70
2023-04-18T08:57:26.553Z,33.73
2023-04-18T08:58:26.501Z,33.79
2023-04-18T08:59:26.535Z,33.85
2023-04-18T09:00:26.480Z,33.84
2023-04-18T09:01:26.527Z,33.90
2023-04-18T09:02:28.737Z,33.88
2023-04-18T09:03:26.754Z,33.94
2023-04-18T09:04:26.666Z,34.01
2023-04-18T09:05:26.654Z,34.10
2023-04-18T09:06:27.824Z,34.09
2023-04-18T09:07:27.757Z,34.06
2023-04-18T09:08:26.902Z,34.14
2023-04-18T09:09:27.322Z,34.19
2023-04-18T09:10:26.949Z,34.22
2023-04-18T09:11:26.953Z,34.28
2023-04-18T09:12:27.059Z,33.35
2023-04-18T09:13:27.082Z,33.08
2023-04-18T09:14:27.378Z,32.66
2023-04-18T09:15:27.158Z,32.58
2023-04-18T09:16:28.046Z,32.31
2023-04-18T09:17:27.165Z,32.69
2023-04-18T09:18:27.224Z,32.69
2023-04-18T09:19:27.374Z,32.96
2023-04-18T09:20:27.318Z,33.08
2023-04-18T09:21:27.279Z,33.09
2023-04-18T09:22:27.336Z,33.09
2023-04-18T09:23:27.462Z,33.07
2023-04-18T09:24:27.480Z,33.02
2023-04-18T09:25:27.406Z,33.04
2023-04-18T09:26:27.375Z,33.03
2023-04-18T09:27:27.361Z,33.20
2023-04-18T09:28:27.393Z,33.29
2023-04-18T09:29:27.394Z,33.26
2023-04-18T09:30:27.380Z,33.29
2023-04-18T09:31:27.393Z,33.22
2023-04-18T09:32:27.528Z,33.17
2023-04-18T09:33:27.365Z,33.52
2023-04-18T09:34:28.246Z,33.48
2023-04-18T09:35:27.366Z,33.60
2023-04-18T09:36:28.396Z,33.22
2023-04-18T09:37:27.440Z,32.73
2023-04-18T09:38:27.429Z,32.95
2023-04-18T09:39:27.453Z,32.93
2023-04-18T09:40:27.468Z,32.95
2023-04-18T09:41:27.782Z,32.78
2023-04-18T09:43:46.524Z,32.55
2023-04-18T09:44:46.337Z,32.46
2023-04-18T09:45:46.351Z,32.36
2023-04-18T09:46:47.614Z,32.23
2023-04-18T09:47:46.415Z,32.10
2023-04-18T09:48:46.305Z,32.04
2023-04-18T09:49:46.283Z,31.98
2023-04-18T09:50:46.569Z,31.91
2023-04-18T09:51:46.355Z,31.84
2023-04-18T09:52:46.278Z,31.86
2023-04-18T09:53:46.298Z,31.77
2023-04-18T09:54:48.179Z,31.71
2023-04-18T09:55:46.239Z,31.58
2023-04-18T09:56:46.207Z,31.57
2023-04-18T09:57:46.207Z,31.44
2023-04-18T09:58:46.200Z,31.34
2023-04-18T09:59:46.216Z,31.33
2023-04-18T10:00:46.973Z,31.27
2023-04-18T10:01:46.236Z,31.20
2023-04-18T10:02:46.237Z,31.14
2023-04-18T10:03:46.266Z,31.09
2023-04-18T10:04:46.255Z,31.08
2023-04-18T10:05:46.293Z,31.05
2023-04-18T10:06:46.112Z,31.00
2023-04-18T10:07:46.181Z,30.99
2023-04-18T10:08:46.191Z,30.94
2023-04-18T10:09:46.126Z,30.90
2023-04-18T10:10:46.752Z,30.92
2023-04-18T10:11:46.098Z,30.91
2023-04-18T10:12:47.018Z,30.85
2023-04-18T10:13:46.096Z,30.97
2023-04-18T10:14:46.180Z,30.74
2023-04-18T10:15:46.579Z,30.70
2023-04-18T10:16:48.418Z,30.64
2023-04-18T10:18:02.824Z,30.56
2023-04-18T10:18:47.526Z,30.43
2023-04-18T10:19:46.552Z,30.38
2023-04-18T10:20:46.589Z,30.36
2023-04-18T10:21:46.057Z,30.32
2023-04-18T10:22:46.059Z,30.22
2023-04-18T10:23:46.017Z,30.19
2023-04-18T10:24:46.023Z,30.14
2023-04-18T10:25:46.033Z,30.08
2023-04-18T10:26:46.006Z,29.96
2023-04-18T10:27:46.044Z,29.80
2023-04-18T10:28:46.048Z,29.77
2023-04-18T10:29:46.029Z,29.74
2023-04-18T10:30:45.971Z,29.60
2023-04-18T10:31:45.988Z,29.66
2023-04-18T10:32:46.121Z,29.56
2023-04-18T10:33:52.803Z,29.62
2023-04-18T10:34:46.986Z,29.61
2023-04-18T10:35:45.957Z,29.54
2023-04-18T10:36:45.933Z,29.50
2023-04-18T10:37:46.079Z,29.48
2023-04-18T10:38:45.921Z,29.38
2023-04-18T10:39:45.920Z,29.35
2023-04-18T10:40:45.938Z,29.27
2023-04-18T10:41:45.893Z,29.17
2023-04-18T10:42:46.054Z,29.13
2023-04-18T10:43:45.896Z,29.09
2023-04-18T10:44:45.930Z,29.05
2023-04-18T10:45:45.928Z,28.99
2023-04-18T10:46:45.925Z,28.97
2023-04-18T10:47:46.167Z,28.94
2023-04-18T10:48:45.925Z,28.87
2023-04-18T10:49:45.992Z,28.82
2023-04-18T10:50:45.972Z,28.79
2023-04-18T10:51:46.118Z,28.81
2023-04-18T10:52:46.570Z,28.79
2023-04-18T10:53:46.125Z,28.75
2023-04-18T10:54:46.121Z,28.70
2023-04-18T10:55:46.185Z,28.67
2023-04-18T10:56:46.197Z,28.69
2023-04-18T10:57:46.260Z,28.70
2023-04-18T10:58:46.407Z,28.64
2023-04-18T10:59:46.575Z,28.65
2023-04-18T11:00:46.446Z,28.57
2023-04-18T11:01:46.435Z,28.54
2023-04-18T11:02:46.618Z,28.43
2023-04-18T11:03:46.579Z,28.34
2023-04-18T11:04:46.561Z,28.38
2023-04-18T11:05:46.617Z,28.37
2023-04-18T11:06:46.620Z,28.26
2023-04-18T11:07:46.636Z,28.23
2023-04-18T11:08:46.690Z,28.16
2023-04-18T11:09:46.742Z,28.17
2023-04-18T11:10:46.800Z,28.15
2023-04-18T11:11:46.805Z,28.08
2023-04-18T11:12:46.868Z,28.08
2023-04-18T11:13:46.927Z,28.09
2023-04-18T11:14:47.038Z,28.07
2023-04-18T11:15:46.956Z,28.11
2023-04-18T11:16:47.149Z,28.03
2023-04-18T11:17:47.126Z,28.04
2023-04-18T11:18:47.157Z,28.08
2023-04-18T11:19:48.045Z,28.07
2023-04-18T11:20:47.244Z,28.05
2023-04-18T11:21:47.294Z,27.98
2023-04-18T11:22:47.314Z,27.97
2023-04-18T11:23:47.353Z,27.99
2023-04-18T11:24:47.568Z,27.96
2023-04-18T11:25:47.426Z,27.93
2023-04-18T11:26:47.473Z,27.94
2023-04-18T11:27:47.475Z,27.95
2023-04-18T11:28:47.564Z,27.96
2023-04-18T11:29:47.599Z,27.97
2023-04-18T11:30:47.596Z,27.93
2023-04-18T11:31:47.671Z,27.96
2023-04-18T11:32:47.721Z,27.92
2023-04-18T11:33:47.787Z,27.92
2023-04-18T11:34:47.807Z,27.89
2023-04-18T11:35:47.796Z,27.89
2023-04-18T11:36:47.856Z,27.88
2023-04-18T11:37:47.915Z,27.93
2023-04-18T11:38:47.968Z,27.93
2023-04-18T11:39:48.030Z,27.87
2023-04-18T11:40:48.036Z,27.87
2023-04-18T11:41:48.084Z,27.87
2023-04-18T11:42:48.565Z,27.87
2023-04-18T11:43:48.165Z,27.82
2023-04-18T11:44:48.217Z,27.78
2023-04-18T11:45:48.272Z,27.83
2023-04-18T11:46:48.324Z,27.79
2023-04-18T11:47:48.354Z,27.76
2023-04-18T11:48:48.388Z,27.72
2023-04-18T11:49:48.444Z,27.68
2023-04-18T11:50:48.506Z,27.63
2023-04-18T11:51:48.527Z,27.62
2023-04-18T11:52:48.575Z,27.57
2023-04-18T11:53:48.624Z,27.60
2023-04-18T11:54:48.693Z,27.53
2023-04-18T11:55:48.746Z,27.46
2023-04-18T11:56:48.750Z,27.37
2023-04-18T11:57:48.808Z,27.37
2023-04-18T11:58:48.867Z,27.37
2023-04-18T11:59:48.866Z,27.31
2023-04-18T12:00:48.926Z,27.28
2023-04-18T12:01:49.016Z,27.26
2023-04-18T12:02:49.296Z,27.21
2023-04-18T12:03:49.140Z,27.21
2023-04-18T12:04:49.404Z,27.17
2023-04-18T12:05:49.418Z,27.20
2023-04-18T12:06:49.228Z,27.17
2023-04-18T12:07:49.290Z,27.20
2023-04-18T12:08:49.342Z,27.17
2023-04-18T12:09:49.349Z,27.18
2023-04-18T12:10:49.399Z,27.19
2023-04-18T12:11:49.472Z,27.12
2023-04-18T12:12:49.523Z,27.09
2023-04-18T12:13:49.575Z,27.11
2023-04-18T12:14:49.600Z,27.10
2023-04-18T12:15:49.817Z,27.11
2023-04-18T12:16:49.709Z,27.10
2023-04-18T12:17:49.755Z,27.09
2023-04-18T12:18:49.816Z,27.06
2023-04-18T12:19:49.964Z,27.02
2023-04-18T12:20:49.913Z,27.05
2023-04-18T12:21:49.937Z,27.09
2023-04-18T12:22:50.034Z,27.07
2023-04-18T12:23:50.064Z,27.10
2023-04-18T12:24:50.084Z,27.03
2023-04-18T12:25:50.133Z,27.00
2023-04-18T12:26:50.173Z,26.99
2023-04-18T12:27:50.194Z,26.94
2023-04-18T12:28:50.251Z,26.99
2023-04-18T12:29:50.315Z,26.96
2023-04-18T12:30:50.312Z,26.89
2023-04-18T12:31:50.394Z,26.96
2023-04-18T12:32:50.598Z,26.92
2023-04-18T12:33:50.533Z,26.93
2023-04-18T12:34:50.483Z,26.90
2023-04-18T12:35:50.563Z,26.89
2023-04-18T12:36:50.641Z,26.89
2023-04-18T12:37:50.661Z,26.90
2023-04-18T12:38:50.680Z,26.95
2023-04-18T12:39:50.728Z,26.94
2023-04-18T12:40:50.801Z,26.96
2023-04-18T12:41:50.852Z,26.99
2023-04-18T12:42:50.915Z,26.98
2023-04-18T12:43:50.979Z,26.94
2023-04-18T12:44:51.029Z,26.93
2023-04-18T12:45:51.084Z,26.91
2023-04-18T12:46:51.173Z,26.89
2023-04-18T12:47:51.224Z,26.87
2023-04-18T12:48:51.150Z,26.92
2023-04-18T12:49:51.260Z,26.91
2023-04-18T12:50:51.402Z,26.95
2023-04-18T12:51:51.338Z,26.94
2023-04-18T12:52:51.377Z,26.92
2023-04-18T12:53:51.442Z,26.91